Time;durP1;ratioP1;P1;durP2;ratioP2;P2;SDS_P1;SDS_P2;PMS_P1;PMS_P2;Temp;Humidity;BMP_temperature;BMP_pressure;BME280_temperature;BME280_humidity;BME280_pressure;Samples;Min_cycle;Max_cycle;Signal;HPM_P1;HPM_P2
2023/03/15 00:00:41;;;;;;;10.82;3.60;;;3.50;99.90;;;;;;4996124;28;20569;-51
2023/03/15 00:03:27;;;;;;;9.20;3.50;;;3.50;99.90;;;;;;5011236;28;20132;-53
2023/03/15 00:06:14;;;;;;;10.00;3.55;;;3.50;99.90;;;;;;5010790;28;20034;-52
2023/03/15 00:09:00;;;;;;;8.40;3.30;;;3.60;99.90;;;;;;5010949;28;20410;-51
2023/03/15 00:11:48;;;;;;;9.50;2.95;;;3.60;99.90;;;;;;5011692;28;20399;-47
2023/03/15 00:14:35;;;;;;;9.63;3.53;;;3.60;99.90;;;;;;4992120;28;20030;-54
2023/03/15 00:17:21;;;;;;;8.95;2.90;;;3.50;99.90;;;;;;4991551;28;20031;-58
2023/03/15 00:20:09;;;;;;;11.25;3.30;;;3.50;99.90;;;;;;4992072;28;20045;-55
2023/03/15 00:22:55;;;;;;;10.55;3.05;;;3.40;99.90;;;;;;4993065;28;20105;-48
2023/03/15 00:25:46;;;;;;;9.40;3.35;;;3.40;99.90;;;;;;4991543;28;20058;-54
2023/03/15 00:28:32;;;;;;;8.80;3.30;;;3.30;99.90;;;;;;4992537;28;20040;-50
2023/03/15 00:31:21;;;;;;;8.57;4.55;;;3.30;99.90;;;;;;4991385;28;20456;-55
2023/03/15 00:34:07;;;;;;;6.10;2.97;;;3.30;99.90;;;;;;4993002;28;20054;-49
2023/03/15 00:36:52;;;;;;;9.43;3.22;;;3.30;99.90;;;;;;4990942;28;20058;-48
2023/03/15 00:39:39;;;;;;;11.88;3.30;;;3.20;99.90;;;;;;4991234;28;20034;-49
2023/03/15 00:42:26;;;;;;;6.28;2.80;;;3.20;99.90;;;;;;4991412;28;20030;-47
2023/03/15 00:45:12;;;;;;;10.02;3.17;;;3.20;99.90;;;;;;4977767;28;20042;-54
2023/03/15 00:47:58;;;;;;;10.00;3.55;;;3.20;99.90;;;;;;4991167;28;20050;-47
2023/03/15 00:50:44;;;;;;;11.43;3.53;;;3.20;99.90;;;;;;4991693;28;20138;-48
2023/03/15 00:53:30;;;;;;;9.07;3.40;;;3.20;99.90;;;;;;4991506;28;20035;-47
2023/03/15 00:56:22;;;;;;;9.55;3.95;;;3.10;99.90;;;;;;4991582;28;20025;-51
2023/03/15 00:59:08;;;;;;;11.23;2.78;;;3.20;99.90;;;;;;4993715;28;20060;-48
2023/03/15 01:01:54;;;;;;;8.38;2.92;;;3.30;99.90;;;;;;4980813;28;20029;-48
2023/03/15 01:04:40;;;;;;;9.73;3.17;;;3.10;99.90;;;;;;4995789;28;20117;-48
2023/03/15 01:07:26;;;;;;;8.90;3.45;;;3.10;99.90;;;;;;5014686;28;20121;-49
2023/03/15 01:10:13;;;;;;;12.20;3.13;;;3.20;99.90;;;;;;5014903;28;20406;-47
2023/03/15 01:12:59;;;;;;;10.77;3.80;;;3.20;99.90;;;;;;5014782;28;20053;-53
2023/03/15 01:15:46;;;;;;;8.45;2.70;;;3.30;99.90;;;;;;5015198;28;20104;-54
2023/03/15 01:18:32;;;;;;;8.27;2.90;;;3.30;99.90;;;;;;5014733;28;20030;-47
2023/03/15 01:21:20;;;;;;;8.75;3.03;;;3.40;99.90;;;;;;5000786;28;20112;-47
2023/03/15 01:24:06;;;;;;;7.18;3.05;;;3.40;99.90;;;;;;5015093;28;20030;-52
2023/03/15 01:26:52;;;;;;;10.23;3.20;;;3.30;99.90;;;;;;5014163;28;20124;-49
2023/03/15 01:29:38;;;;;;;13.38;3.75;;;3.20;99.90;;;;;;5014491;28;20034;-49
2023/03/15 01:32:25;;;;;;;16.08;3.20;;;3.30;99.90;;;;;;5014451;28;20053;-48
2023/03/15 01:35:11;;;;;;;13.30;2.85;;;3.20;99.90;;;;;;5014241;28;20062;-47
2023/03/15 01:37:57;;;;;;;9.00;3.53;;;3.20;99.90;;;;;;5014514;28;20050;-51
2023/03/15 01:40:44;;;;;;;10.15;2.95;;;3.30;99.90;;;;;;5013710;28;20030;-48
2023/03/15 01:43:31;;;;;;;16.13;3.53;;;3.20;99.90;;;;;;5000099;28;20030;-48
2023/03/15 01:46:22;;;;;;;13.52;2.85;;;3.20;99.90;;;;;;5013788;28;20058;-47
2023/03/15 01:49:16;;;;;;;11.73;3.83;;;3.20;99.90;;;;;;5014012;28;20124;-48
2023/03/15 01:52:06;;;;;;;9.18;3.05;;;3.20;99.90;;;;;;5015044;28;20030;-53
2023/03/15 01:54:54;;;;;;;10.55;3.20;;;3.20;99.90;;;;;;5014054;28;20430;-49
2023/03/15 01:57:48;;;;;;;10.95;2.80;;;3.10;99.90;;;;;;5013261;28;20029;-51
2023/03/15 02:00:34;;;;;;;9.95;3.97;;;3.20;99.90;;;;;;5014010;28;20056;-53
2023/03/15 02:03:27;;;;;;;10.60;2.80;;;3.10;99.90;;;;;;5014034;28;20034;-51
2023/03/15 02:06:17;;;;;;;17.13;3.15;;;3.20;99.90;;;;;;5012608;28;20482;-48
2023/03/15 02:09:07;;;;;;;10.95;3.00;;;3.20;99.90;;;;;;5013171;28;20034;-48
2023/03/15 02:11:55;;;;;;;16.40;3.17;;;3.10;99.90;;;;;;4998951;28;20048;-50
2023/03/15 02:14:41;;;;;;;8.80;2.70;;;3.10;99.90;;;;;;5013569;28;20037;-53
2023/03/15 02:17:36;;;;;;;11.68;3.00;;;3.10;99.90;;;;;;5013911;28;20118;-52
2023/03/15 02:21:03;;;;;;;11.13;3.05;;;3.10;99.90;;;;;;5014203;28;20058;-47
2023/03/15 02:24:23;;;;;;;10.52;3.38;;;3.10;99.90;;;;;;4934081;29;20091;-50
2023/03/15 02:27:09;;;;;;;8.63;3.53;;;3.00;99.90;;;;;;4932851;29;20094;-50
2023/03/15 02:29:56;;;;;;;5.97;2.67;;;2.90;99.90;;;;;;5013861;28;20506;-51
2023/03/15 02:32:42;;;;;;;7.15;2.83;;;2.90;99.90;;;;;;5013687;28;20386;-47
2023/03/15 02:35:31;;;;;;;14.15;3.60;;;2.80;99.90;;;;;;5013044;28;20056;-47
2023/03/15 02:38:18;;;;;;;9.90;3.00;;;2.70;99.90;;;;;;5014630;28;20070;-48
2023/03/15 02:41:05;;;;;;;11.00;3.28;;;2.70;99.90;;;;;;5014295;28;20038;-46
2023/03/15 02:43:54;;;;;;;10.85;3.45;;;2.80;99.90;;;;;;5013561;28;20067;-49
2023/03/15 02:46:41;;;;;;;10.55;3.33;;;2.70;99.90;;;;;;5013394;28;20407;-52
2023/03/15 02:49:31;;;;;;;7.10;3.20;;;2.70;99.90;;;;;;5014629;28;20133;-49
2023/03/15 02:52:17;;;;;;;6.03;2.80;;;2.80;99.90;;;;;;5020399;28;20018;-48
2023/03/15 02:55:03;;;;;;;7.60;2.90;;;2.80;99.90;;;;;;5021721;28;20030;-51
2023/03/15 02:57:49;;;;;;;8.75;2.80;;;2.80;99.90;;;;;;5011779;28;20038;-48
2023/03/15 03:00:35;;;;;;;9.30;3.60;;;2.90;99.90;;;;;;5026564;28;20054;-48
2023/03/15 03:03:21;;;;;;;10.18;3.28;;;2.90;99.90;;;;;;5023025;28;20040;-51
2023/03/15 03:06:07;;;;;;;11.15;3.60;;;2.90;99.90;;;;;;5012294;28;20049;-57
2023/03/15 03:08:53;;;;;;;10.55;3.60;;;2.90;99.90;;;;;;5024486;28;20038;-56
2023/03/15 03:11:39;;;;;;;8.20;2.97;;;2.80;99.90;;;;;;5017947;28;20026;-48
2023/03/15 03:14:25;;;;;;;9.02;3.05;;;2.80;99.90;;;;;;5018895;28;20026;-50
2023/03/15 03:17:11;;;;;;;12.77;3.20;;;2.80;99.90;;;;;;5007292;28;20029;-52
2023/03/15 03:19:57;;;;;;;8.63;2.80;;;2.80;99.90;;;;;;5026254;28;20030;-54
2023/03/15 03:22:44;;;;;;;10.73;3.83;;;2.70;99.90;;;;;;5020527;28;20037;-52
2023/03/15 03:25:31;;;;;;;7.68;3.28;;;2.70;99.90;;;;;;5016110;28;20045;-51
2023/03/15 03:28:16;;;;;;;7.60;2.88;;;2.60;99.90;;;;;;5012875;28;20545;-54
2023/03/15 03:31:02;;;;;;;12.18;2.83;;;2.60;99.90;;;;;;5012528;28;20037;-48
2023/03/15 03:33:48;;;;;;;13.85;3.00;;;2.50;99.90;;;;;;5012193;28;20379;-52
2023/03/15 03:36:34;;;;;;;10.30;3.17;;;2.60;99.90;;;;;;5012107;28;20082;-49
2023/03/15 03:39:20;;;;;;;13.90;3.10;;;2.50;99.90;;;;;;5011230;28;20026;-47
2023/03/15 03:42:06;;;;;;;16.25;2.95;;;2.50;99.90;;;;;;5012244;28;20487;-50
2023/03/15 03:44:53;;;;;;;5.95;2.88;;;2.50;99.90;;;;;;5012129;28;20022;-48
2023/03/15 03:47:39;;;;;;;12.05;3.08;;;2.40;99.90;;;;;;5011962;28;20045;-51
2023/03/15 03:50:25;;;;;;;12.82;2.88;;;2.40;99.90;;;;;;4997889;28;20510;-51
2023/03/15 03:53:11;;;;;;;10.02;3.22;;;2.40;99.90;;;;;;5012747;28;20092;-55
2023/03/15 03:55:57;;;;;;;8.43;3.13;;;2.40;99.90;;;;;;5012054;28;20026;-49
2023/03/15 03:58:43;;;;;;;10.15;3.40;;;2.30;99.90;;;;;;4997924;28;20065;-54
2023/03/15 04:01:29;;;;;;;10.20;2.92;;;2.40;99.90;;;;;;4997553;28;20022;-53
2023/03/15 04:04:15;;;;;;;8.18;3.05;;;2.30;99.90;;;;;;5011942;28;20022;-51
2023/03/15 04:07:01;;;;;;;12.93;3.00;;;2.30;99.90;;;;;;5011519;28;20056;-49
2023/03/15 04:09:47;;;;;;;10.30;3.17;;;2.30;99.90;;;;;;5011848;28;20510;-48
2023/03/15 04:12:33;;;;;;;10.15;2.65;;;2.20;99.90;;;;;;5010743;28;20112;-50
2023/03/15 04:15:21;;;;;;;11.90;3.25;;;2.20;99.90;;;;;;5011722;28;20022;-50
2023/03/15 04:18:07;;;;;;;7.80;2.80;;;2.20;99.90;;;;;;5011543;28;20446;-50
2023/03/15 04:20:56;;;;;;;12.68;3.45;;;2.10;99.90;;;;;;5012131;28;20405;-50
2023/03/15 04:23:42;;;;;;;13.65;4.07;;;2.20;99.90;;;;;;5012500;28;20117;-50
2023/03/15 04:26:28;;;;;;;8.70;3.13;;;2.30;99.90;;;;;;5011665;28;20044;-48
2023/03/15 04:29:14;;;;;;;9.30;3.10;;;2.40;99.90;;;;;;5012856;28;20065;-47
2023/03/15 04:32:00;;;;;;;8.38;3.28;;;2.40;99.90;;;;;;5014553;28;20509;-49
2023/03/15 04:34:50;;;;;;;10.85;3.53;;;2.40;99.90;;;;;;5001185;28;20514;-47
2023/03/15 04:37:36;;;;;;;10.48;4.28;;;2.40;99.90;;;;;;5015304;28;20018;-48
2023/03/15 04:40:23;;;;;;;10.68;2.95;;;2.30;99.90;;;;;;5015673;28;20037;-49
2023/03/15 04:43:09;;;;;;;8.70;3.47;;;2.30;99.90;;;;;;5000683;28;20490;-54
2023/03/15 04:45:55;;;;;;;14.88;3.50;;;2.40;99.90;;;;;;5001220;28;20038;-53
2023/03/15 04:48:41;;;;;;;11.20;3.10;;;2.30;99.90;;;;;;5015374;28;20037;-55
2023/03/15 04:51:27;;;;;;;13.63;3.42;;;2.30;99.90;;;;;;5001800;28;20135;-52
2023/03/15 04:54:13;;;;;;;11.68;2.95;;;2.30;99.90;;;;;;5015399;28;20098;-47
2023/03/15 04:56:59;;;;;;;11.32;3.00;;;2.30;99.90;;;;;;5015078;28;20070;-48
2023/03/15 04:59:45;;;;;;;11.50;3.03;;;2.30;99.90;;;;;;5014142;28;20490;-47
2023/03/15 05:02:31;;;;;;;12.57;4.03;;;2.20;99.90;;;;;;5015854;28;20052;-48
2023/03/15 05:05:17;;;;;;;11.25;3.25;;;2.30;99.90;;;;;;5015047;28;20026;-48
2023/03/15 05:08:03;;;;;;;9.32;3.22;;;2.40;99.90;;;;;;5014968;28;20524;-51
2023/03/15 05:10:50;;;;;;;7.90;2.70;;;2.40;99.90;;;;;;5015180;28;20033;-50
2023/03/15 05:13:36;;;;;;;10.00;3.47;;;2.50;99.90;;;;;;5015294;28;20018;-51
2023/03/15 05:16:22;;;;;;;16.63;3.20;;;2.50;99.90;;;;;;5015105;28;20026;-50
2023/03/15 05:19:08;;;;;;;9.73;3.08;;;2.50;99.90;;;;;;5001008;28;20572;-57
2023/03/15 05:21:54;;;;;;;12.10;3.42;;;2.50;99.90;;;;;;5014850;28;20044;-54
2023/03/15 05:24:40;;;;;;;7.25;3.08;;;2.50;99.90;;;;;;5014092;28;20058;-56
2023/03/15 05:27:27;;;;;;;8.98;3.60;;;2.50;99.90;;;;;;5013827;28;20041;-54
2023/03/15 05:30:15;;;;;;;11.13;3.55;;;2.60;99.90;;;;;;5014324;28;20073;-52
2023/03/15 05:33:03;;;;;;;9.05;3.13;;;2.60;99.90;;;;;;5014812;28;20029;-54
2023/03/15 05:35:51;;;;;;;10.07;3.45;;;2.70;99.90;;;;;;5000636;28;20022;-48
2023/03/15 05:38:37;;;;;;;10.85;3.95;;;2.80;99.90;;;;;;5013882;28;20030;-48
2023/03/15 05:41:23;;;;;;;11.38;3.63;;;2.80;99.90;;;;;;5013825;28;20056;-48
2023/03/15 05:44:09;;;;;;;11.38;3.35;;;2.70;99.90;;;;;;5012479;28;20034;-52
2023/03/15 05:46:55;;;;;;;13.02;3.63;;;2.80;99.90;;;;;;5013586;28;20109;-50
2023/03/15 05:49:41;;;;;;;14.77;3.25;;;2.90;99.90;;;;;;5013149;28;20478;-52
2023/03/15 05:52:27;;;;;;;11.40;3.10;;;2.90;99.90;;;;;;5014039;28;20105;-55
2023/03/15 05:55:13;;;;;;;14.48;3.58;;;3.00;99.90;;;;;;5013452;28;20029;-50
2023/03/15 05:57:59;;;;;;;8.88;3.50;;;3.00;99.90;;;;;;4999037;28;20390;-55
2023/03/15 06:00:45;;;;;;;10.32;3.67;;;3.10;99.90;;;;;;5014056;28;20030;-48
2023/03/15 06:03:31;;;;;;;14.02;3.58;;;3.20;99.90;;;;;;5012919;28;20104;-51
2023/03/15 06:06:17;;;;;;;10.00;3.58;;;3.00;99.90;;;;;;5013428;28;20026;-48
2023/03/15 06:09:03;;;;;;;13.68;4.43;;;3.10;99.90;;;;;;5013262;28;20038;-47
2023/03/15 06:11:49;;;;;;;12.23;3.55;;;3.10;99.90;;;;;;5013010;28;20020;-48
2023/03/15 06:14:35;;;;;;;12.98;3.28;;;3.10;99.90;;;;;;5012724;28;20105;-51
2023/03/15 06:17:21;;;;;;;8.43;3.20;;;3.10;99.90;;;;;;5012958;28;20413;-51
2023/03/15 06:20:08;;;;;;;11.65;3.85;;;3.00;99.90;;;;;;5012948;28;20108;-52
2023/03/15 06:22:54;;;;;;;14.85;3.58;;;2.90;99.90;;;;;;5013833;28;20026;-61
2023/03/15 06:25:40;;;;;;;9.18;3.53;;;2.60;99.90;;;;;;5012958;28;20526;-48
2023/03/15 06:28:26;;;;;;;12.70;4.07;;;2.50;99.90;;;;;;4985381;28;20026;-52
2023/03/15 06:31:13;;;;;;;8.75;3.38;;;2.40;99.90;;;;;;5012881;28;20022;-49
2023/03/15 06:33:59;;;;;;;12.30;3.65;;;2.30;99.90;;;;;;5012635;28;20022;-48
2023/03/15 06:36:44;;;;;;;12.15;4.28;;;2.30;99.90;;;;;;4997746;28;20026;-52
2023/03/15 06:39:33;;;;;;;14.48;4.40;;;2.30;99.90;;;;;;5012911;28;20037;-55
2023/03/15 06:42:19;;;;;;;7.95;3.38;;;2.20;99.90;;;;;;5012871;28;20044;-54
2023/03/15 06:45:07;;;;;;;14.32;3.95;;;2.40;99.90;;;;;;5012738;28;20022;-56
2023/03/15 06:47:53;;;;;;;11.38;4.10;;;2.40;99.90;;;;;;5012328;28;20037;-54
2023/03/15 06:50:39;;;;;;;11.05;4.18;;;2.30;99.90;;;;;;5012436;28;20064;-54
2023/03/15 06:53:25;;;;;;;11.93;3.88;;;2.40;99.90;;;;;;4998005;28;20057;-54
2023/03/15 06:56:11;;;;;;;12.93;3.97;;;2.30;99.90;;;;;;5012356;28;20033;-55
2023/03/15 06:58:57;;;;;;;14.85;4.78;;;2.40;99.90;;;;;;5012427;28;20030;-54
2023/03/15 07:01:43;;;;;;;14.35;3.83;;;2.50;99.90;;;;;;5012331;28;20088;-48
2023/03/15 07:04:29;;;;;;;15.77;5.32;;;2.60;99.90;;;;;;5012302;28;20048;-47
2023/03/15 07:07:15;;;;;;;13.25;4.07;;;2.60;99.90;;;;;;5010445;28;20053;-52
2023/03/15 07:10:01;;;;;;;10.75;4.68;;;2.80;99.90;;;;;;5011481;28;20466;-49
2023/03/15 07:12:47;;;;;;;17.23;4.38;;;2.80;99.90;;;;;;5010779;28;20038;-50
2023/03/15 07:15:35;;;;;;;16.63;4.65;;;2.90;99.90;;;;;;5012169;28;20119;-51
2023/03/15 07:18:22;;;;;;;14.98;4.38;;;2.80;99.90;;;;;;5011813;28;20541;-56
2023/03/15 07:21:07;;;;;;;13.27;3.22;;;2.70;99.90;;;;;;5012095;28;20117;-54
2023/03/15 07:23:54;;;;;;;12.98;3.88;;;2.70;99.90;;;;;;5010379;28;20026;-50
2023/03/15 07:26:40;;;;;;;11.98;4.28;;;2.70;99.90;;;;;;5011449;28;20057;-49
2023/03/15 07:29:26;;;;;;;15.27;4.45;;;2.70;99.90;;;;;;5012958;28;20124;-51
2023/03/15 07:32:11;;;;;;;11.98;4.32;;;2.70;99.90;;;;;;5011823;28;20058;-48
2023/03/15 07:34:59;;;;;;;13.15;4.28;;;2.80;99.90;;;;;;5011575;28;20076;-51
2023/03/15 07:37:45;;;;;;;13.90;4.95;;;2.90;99.90;;;;;;5011398;28;20096;-48
2023/03/15 07:40:31;;;;;;;12.52;3.92;;;3.00;99.90;;;;;;5011050;28;20030;-48
2023/03/15 07:43:17;;;;;;;12.68;3.83;;;3.10;99.90;;;;;;5011803;28;20021;-52
2023/03/15 07:46:03;;;;;;;13.45;4.68;;;3.10;99.90;;;;;;5011338;28;20018;-53
2023/03/15 07:48:49;;;;;;;17.25;4.70;;;3.10;99.90;;;;;;4997452;28;20112;-53
2023/03/15 07:51:35;;;;;;;15.45;5.13;;;3.10;99.90;;;;;;5011641;28;20052;-50
2023/03/15 07:54:21;;;;;;;16.40;4.88;;;3.20;99.90;;;;;;5012567;28;20053;-54
2023/03/15 07:57:07;;;;;;;14.95;4.40;;;3.40;99.90;;;;;;5011783;28;20394;-59
2023/03/15 07:59:53;;;;;;;11.52;4.47;;;3.60;99.90;;;;;;5012403;28;20033;-56
2023/03/15 08:02:39;;;;;;;19.58;4.55;;;3.40;99.90;;;;;;5011731;28;20030;-54
2023/03/15 08:05:25;;;;;;;13.15;4.40;;;3.30;99.90;;;;;;5011208;28;20030;-60
2023/03/15 08:08:11;;;;;;;21.52;5.43;;;3.30;99.90;;;;;;5012058;28;20088;-50
2023/03/15 08:10:58;;;;;;;12.70;4.82;;;3.30;99.90;;;;;;5012136;28;20113;-48
2023/03/15 08:13:44;;;;;;;18.50;5.03;;;3.30;99.90;;;;;;5011684;28;20030;-49
2023/03/15 08:16:30;;;;;;;14.00;6.47;;;3.30;99.90;;;;;;5010880;28;20030;-52
2023/03/15 08:19:15;;;;;;;12.07;5.20;;;3.40;99.90;;;;;;5011112;28;20454;-51
2023/03/15 08:22:02;;;;;;;11.30;4.68;;;3.50;99.90;;;;;;4996602;28;20030;-54
2023/03/15 08:24:48;;;;;;;9.27;4.93;;;3.70;99.90;;;;;;5011061;28;20068;-54
2023/03/15 08:27:34;;;;;;;12.68;5.18;;;3.80;99.90;;;;;;5010970;28;20037;-52
2023/03/15 08:30:20;;;;;;;12.50;5.10;;;3.80;99.90;;;;;;4995828;28;20022;-54
2023/03/15 08:33:07;;;;;;;11.88;4.93;;;4.00;99.90;;;;;;5012402;28;20021;-48
2023/03/15 08:35:53;;;;;;;16.63;5.50;;;4.20;99.90;;;;;;5011459;28;20034;-48
2023/03/15 08:38:40;;;;;;;11.75;4.90;;;4.30;99.90;;;;;;5010918;28;20029;-48
2023/03/15 08:41:26;;;;;;;12.95;5.50;;;4.40;99.90;;;;;;5011057;28;20092;-53
2023/03/15 08:44:12;;;;;;;11.18;4.78;;;4.10;99.90;;;;;;5010900;28;20120;-54
2023/03/15 08:46:58;;;;;;;8.10;4.35;;;4.00;99.90;;;;;;5010734;28;20036;-51
2023/03/15 08:49:44;;;;;;;7.97;4.18;;;4.20;99.90;;;;;;5011160;28;20026;-47
2023/03/15 08:52:30;;;;;;;11.88;4.85;;;4.30;99.90;;;;;;5009878;28;20518;-51
2023/03/15 08:55:16;;;;;;;7.47;4.25;;;4.40;99.90;;;;;;4996416;28;20049;-55
2023/03/15 08:58:03;;;;;;;8.93;4.40;;;4.40;99.90;;;;;;5011496;28;20076;-58
2023/03/15 09:00:50;;;;;;;9.63;4.65;;;4.40;99.90;;;;;;5005404;28;20026;-53
2023/03/15 09:03:36;;;;;;;6.90;4.40;;;4.50;99.90;;;;;;4999163;28;20028;-54
2023/03/15 09:06:22;;;;;;;5.70;4.40;;;4.50;99.90;;;;;;4991307;28;20041;-50
2023/03/15 09:09:08;;;;;;;7.57;4.30;;;4.20;99.90;;;;;;5006894;28;20038;-51
2023/03/15 09:11:55;;;;;;;7.55;4.35;;;4.20;99.90;;;;;;5010811;28;20041;-53
2023/03/15 09:14:41;;;;;;;9.45;4.53;;;4.50;99.90;;;;;;4994308;28;20042;-54
2023/03/15 09:17:26;;;;;;;8.65;4.75;;;4.50;99.90;;;;;;5003187;28;20057;-47
2023/03/15 09:20:17;;;;;;;9.38;4.47;;;4.60;99.90;;;;;;4999777;28;20026;-50
2023/03/15 09:23:03;;;;;;;10.07;4.53;;;4.50;99.90;;;;;;5014654;28;20407;-52
2023/03/15 09:25:49;;;;;;;10.65;5.15;;;4.70;99.90;;;;;;5014876;28;20548;-47
2023/03/15 09:28:35;;;;;;;8.20;4.88;;;4.70;99.90;;;;;;5013903;28;20077;-47
2023/03/15 09:31:21;;;;;;;8.30;4.50;;;4.90;99.90;;;;;;5013048;28;20038;-47
2023/03/15 09:34:07;;;;;;;9.85;4.40;;;5.00;99.90;;;;;;5013788;28;20033;-48
2023/03/15 09:36:53;;;;;;;6.88;4.40;;;5.10;99.90;;;;;;4995535;28;20026;-47
2023/03/15 09:39:39;;;;;;;6.90;4.38;;;5.30;99.90;;;;;;4995611;28;20026;-50
2023/03/15 09:42:31;;;;;;;9.27;4.43;;;5.30;99.90;;;;;;5014660;28;20026;-49
2023/03/15 09:45:30;;;;;;;7.95;4.45;;;5.10;99.90;;;;;;5014382;28;20101;-47
2023/03/15 09:48:16;;;;;;;8.02;3.97;;;5.10;99.90;;;;;;5014264;28;20033;-50
2023/03/15 09:51:34;;;;;;;9.80;4.60;;;5.40;99.90;;;;;;5012821;28;20033;-49
2023/03/15 09:54:28;;;;;;;6.00;3.70;;;5.60;99.90;;;;;;4998539;28;20045;-46
2023/03/15 09:57:20;;;;;;;5.78;3.42;;;5.80;99.90;;;;;;5001133;28;20073;-48
2023/03/15 10:00:11;;;;;;;6.25;3.45;;;5.50;99.90;;;;;;5013796;28;20053;-50
2023/03/15 10:03:02;;;;;;;5.75;3.72;;;5.50;99.90;;;;;;5011565;28;20030;-59
2023/03/15 10:05:54;;;;;;;7.30;3.55;;;5.40;99.90;;;;;;5013600;28;20022;-54
2023/03/15 10:08:40;;;;;;;6.22;4.28;;;5.40;99.90;;;;;;5013138;28;20033;-49
2023/03/15 10:11:46;;;;;;;8.75;3.97;;;5.20;99.90;;;;;;5014147;28;20538;-48
2023/03/15 10:14:51;;;;;;;;;;;5.20;99.90;;;;;;5014691;28;20520;-51
2023/03/15 10:18:01;;;;;;;5.70;3.40;;;5.20;99.90;;;;;;5013089;28;20040;-57
2023/03/15 10:20:58;;;;;;;6.05;3.30;;;5.00;99.90;;;;;;4996910;28;20030;-56
2023/03/15 10:23:50;;;;;;;5.25;3.17;;;4.90;99.90;;;;;;5010716;28;20026;-54
2023/03/15 10:26:38;;;;;;;4.65;3.50;;;5.10;99.90;;;;;;5006063;28;20033;-52
2023/03/15 10:29:26;;;;;;;7.22;2.85;;;5.60;99.90;;;;;;5013916;28;20034;-50
2023/03/15 10:32:19;;;;;;;6.82;3.00;;;5.70;99.90;;;;;;5012676;28;20069;-52
2023/03/15 10:35:14;;;;;;;7.68;2.60;;;5.80;98.90;;;;;;5025759;28;20055;-57
2023/03/15 10:38:01;;;;;;;3.88;2.53;;;6.00;97.30;;;;;;5013086;28;20030;-53
2023/03/15 10:40:49;;;;;;;4.35;2.78;;;5.80;97.20;;;;;;5006990;28;20045;-52
2023/03/15 10:43:38;;;;;;;4.43;2.60;;;5.80;97.30;;;;;;5013908;28;20030;-53
2023/03/15 10:46:24;;;;;;;7.97;2.83;;;5.70;97.40;;;;;;4998849;28;20531;-51
2023/03/15 10:49:16;;;;;;;5.07;2.65;;;5.70;97.60;;;;;;4994534;28;20035;-54
2023/03/15 10:52:03;;;;;;;3.38;2.22;;;5.50;97.40;;;;;;4998129;28;20656;-56
2023/03/15 10:54:51;;;;;;;5.70;2.78;;;5.60;96.80;;;;;;5009860;28;20037;-55
2023/03/15 10:57:39;;;;;;;5.82;2.47;;;5.50;97.00;;;;;;5012971;28;20029;-57
2023/03/15 11:00:35;;;;;;;4.38;2.72;;;5.70;96.30;;;;;;4997088;28;20041;-53
2023/03/15 11:03:24;;;;;;;3.55;2.10;;;5.50;96.70;;;;;;4998224;28;20510;-54
2023/03/15 11:06:24;;;;;;;6.80;2.60;;;5.50;96.90;;;;;;5007774;28;20115;-58
2023/03/15 11:09:22;;;;;;;5.18;2.28;;;5.40;96.40;;;;;;5006141;28;20495;-55
2023/03/15 11:12:23;;;;;;;3.60;1.88;;;5.60;96.40;;;;;;4997695;28;20034;-53
2023/03/15 11:15:13;;;;;;;2.47;1.98;;;5.80;96.20;;;;;;5001515;28;20021;-55
2023/03/15 11:17:59;;;;;;;2.92;1.92;;;5.90;95.80;;;;;;5000252;28;20097;-57
2023/03/15 11:20:45;;;;;;;3.20;2.00;;;6.00;95.50;;;;;;5003162;28;20048;-53
2023/03/15 11:23:35;;;;;;;2.58;1.75;;;6.20;94.60;;;;;;5001644;28;20793;-62
2023/03/15 11:26:25;;;;;;;3.67;1.85;;;6.10;92.70;;;;;;5009460;28;20072;-54
2023/03/15 11:29:24;;;;;;;2.00;1.60;;;6.30;91.20;;;;;;5011346;28;20113;-58
2023/03/15 11:32:20;;;;;;;2.97;1.95;;;6.30;90.50;;;;;;5002989;28;20532;-52
2023/03/15 11:35:12;;;;;;;4.03;1.90;;;6.50;91.90;;;;;;5008719;28;20043;-55
2023/03/15 11:38:12;;;;;;;5.03;1.90;;;6.80;91.50;;;;;;4994016;28;20026;-51
2023/03/15 11:41:00;;;;;;;4.38;2.17;;;6.70;91.30;;;;;;5010023;28;20026;-56
2023/03/15 11:44:23;;;;;;;6.03;2.17;;;6.70;91.90;;;;;;5015931;28;20503;-57
2023/03/15 11:47:36;;;;;;;3.10;2.10;;;6.60;92.30;;;;;;5010782;28;20541;-55
2023/03/15 11:50:22;;;;;;;3.75;2.20;;;6.70;93.10;;;;;;5012100;28;20052;-54
2023/03/15 11:53:12;;;;;;;6.95;2.30;;;6.60;93.50;;;;;;4996499;28;20083;-57
2023/03/15 11:56:20;;;;;;;4.75;2.10;;;6.50;93.90;;;;;;5012079;28;20034;-56
2023/03/15 11:59:12;;;;;;;3.30;1.70;;;6.30;94.00;;;;;;4994578;28;20506;-54
2023/03/15 12:02:04;;;;;;;4.22;2.22;;;6.10;94.10;;;;;;4979083;28;20026;-60
2023/03/15 12:04:54;;;;;;;4.25;2.40;;;6.20;94.20;;;;;;5001246;28;20026;-58
2023/03/15 12:07:58;;;;;;;4.28;2.33;;;6.10;94.40;;;;;;5010870;28;20021;-57
2023/03/15 12:10:46;;;;;;;3.85;1.88;;;6.20;94.70;;;;;;5014297;28;20045;-53
2023/03/15 12:13:33;;;;;;;5.43;2.58;;;6.40;94.10;;;;;;5017602;28;20072;-56
2023/03/15 12:16:25;;;;;;;4.93;2.60;;;6.30;93.60;;;;;;5010592;28;20118;-58
2023/03/15 12:19:19;;;;;;;4.72;2.50;;;6.40;94.10;;;;;;5010210;28;20026;-50
2023/03/15 12:22:14;;;;;;;5.13;2.90;;;6.60;94.80;;;;;;4996800;28;20909;-54
2023/03/15 12:25:13;;;;;;;3.42;2.53;;;6.40;95.00;;;;;;5010821;28;20018;-54
2023/03/15 12:28:08;;;;;;;3.78;2.70;;;6.40;95.90;;;;;;5002658;28;20088;-51
2023/03/15 12:30:57;;;;;;;3.60;2.63;;;6.50;95.40;;;;;;5010986;28;20462;-53
2023/03/15 12:33:57;;;;;;;4.30;2.42;;;6.70;94.20;;;;;;5011351;28;20072;-57
2023/03/15 12:36:47;;;;;;;3.90;2.80;;;6.70;94.20;;;;;;5011676;28;20033;-55
2023/03/15 12:39:45;;;;;;;4.25;2.47;;;6.70;93.60;;;;;;5011347;28;20085;-56
2023/03/15 12:42:31;;;;;;;3.63;2.70;;;6.70;93.90;;;;;;5011660;28;20213;-56
2023/03/15 12:45:16;;;;;;;4.10;2.75;;;7.00;93.90;;;;;;4991891;28;20027;-55
2023/03/15 12:48:05;;;;;;;4.28;2.88;;;7.10;94.10;;;;;;5003211;28;20065;-52
2023/03/15 12:51:00;;;;;;;10.30;3.10;;;7.10;94.00;;;;;;4991266;28;20023;-52
2023/03/15 12:53:47;;;;;;;;;;;7.20;93.20;;;;;;5013621;28;20026;-52
2023/03/15 12:56:35;;;;;;;5.35;2.90;;;7.10;92.60;;;;;;5015901;28;19912;-51
2023/03/15 12:59:50;;;;;;;6.25;2.85;;;7.00;92.60;;;;;;5016578;28;20103;-48
2023/03/15 13:02:45;;;;;;;3.67;2.55;;;7.10;92.80;;;;;;5009743;28;20474;-53
2023/03/15 13:05:42;;;;;;;4.82;2.60;;;7.20;92.90;;;;;;4994993;28;20046;-52
2023/03/15 13:08:44;;;;;;;4.30;2.42;;;7.20;91.70;;;;;;5013950;28;20025;-56
2023/03/15 13:11:52;;;;;;;5.72;2.78;;;6.70;92.80;;;;;;5014584;28;20068;-51
2023/03/15 13:14:49;;;;;;;4.70;2.75;;;6.40;93.30;;;;;;5015010;28;20054;-57
2023/03/15 13:17:57;;;;;;;7.00;3.00;;;6.50;93.40;;;;;;5014439;28;20030;-47
2023/03/15 13:21:05;;;;;;;7.10;2.95;;;6.50;94.10;;;;;;5014914;28;20030;-48
2023/03/15 13:23:54;;;;;;;4.47;2.72;;;7.00;93.00;;;;;;5000667;28;20040;-51
2023/03/15 13:26:43;;;;;;;7.32;3.33;;;7.10;92.00;;;;;;5013365;28;20088;-55
2023/03/15 13:29:32;;;;;;;7.32;3.55;;;7.00;92.10;;;;;;5014254;28;20037;-48
2023/03/15 13:32:22;;;;;;;6.97;3.47;;;6.70;92.60;;;;;;5014075;28;20060;-48
2023/03/15 13:35:12;;;;;;;2.80;2.22;;;6.60;92.00;;;;;;5013955;28;20113;-49
2023/03/15 13:38:25;;;;;;;4.70;2.72;;;6.50;91.80;;;;;;5014640;28;20025;-52
2023/03/15 13:41:24;;;;;;;3.95;2.75;;;6.70;92.70;;;;;;5014848;28;20033;-56
2023/03/15 13:44:19;;;;;;;5.53;3.03;;;7.10;92.50;;;;;;5012921;28;20030;-52
2023/03/15 13:47:05;;;;;;;7.20;2.70;;;7.40;90.70;;;;;;5000323;28;20557;-55
2023/03/15 13:49:51;;;;;;;6.82;2.25;;;7.30;83.50;;;;;;4999222;28;20038;-54
2023/03/15 13:52:39;;;;;;;6.75;3.13;;;7.40;83.50;;;;;;4999241;28;20518;-52
2023/03/15 13:55:31;;;;;;;7.63;2.75;;;7.60;84.90;;;;;;5013130;28;20058;-55
2023/03/15 13:58:18;;;;;;;6.22;2.60;;;7.70;84.30;;;;;;5012959;28;20115;-54
2023/03/15 14:01:07;;;;;;;6.30;3.17;;;8.10;82.60;;;;;;5014065;28;20026;-55
2023/03/15 14:04:01;;;;;;;5.18;2.53;;;8.30;83.40;;;;;;5018811;28;20037;-60
2023/03/15 14:06:48;;;;;;;4.90;2.60;;;8.10;84.60;;;;;;5014094;28;20056;-60
2023/03/15 14:09:35;;;;;;;6.75;3.67;;;7.80;87.60;;;;;;5014513;28;20038;-63
2023/03/15 14:12:21;;;;;;;4.07;2.85;;;7.80;90.30;;;;;;5014227;28;20030;-63
2023/03/15 14:15:23;;;;;;;7.22;3.13;;;7.80;89.80;;;;;;5014107;28;20026;-63
2023/03/15 14:18:09;;;;;;;8.20;3.70;;;8.10;88.00;;;;;;5014001;28;20026;-61
2023/03/15 14:21:08;;;;;;;6.22;2.97;;;8.40;89.50;;;;;;5014720;28;20029;-59
2023/03/15 14:23:54;;;;;;;5.43;2.45;;;8.60;88.80;;;;;;5011990;28;20449;-62
2023/03/15 14:26:39;;;;;;;8.35;2.95;;;8.60;83.70;;;;;;5013774;28;20494;-58
2023/03/15 14:29:34;;;;;;;6.13;3.00;;;8.80;82.10;;;;;;4998617;28;20041;-59
2023/03/15 14:32:26;;;;;;;7.85;3.45;;;8.50;88.10;;;;;;5013858;28;20033;-52
2023/03/15 14:35:30;;;;;;;7.75;3.05;;;8.00;90.20;;;;;;5013689;28;20521;-61
2023/03/15 14:38:31;;;;;;;5.45;2.40;;;7.90;89.70;;;;;;5012707;28;20514;-58
2023/03/15 14:41:31;;;;;;;5.80;2.72;;;8.00;89.30;;;;;;5013910;28;20041;-58
2023/03/15 14:44:18;;;;;;;4.63;2.55;;;8.20;90.40;;;;;;5010335;28;20033;-60
2023/03/15 14:47:15;;;;;;;7.13;2.60;;;8.20;89.30;;;;;;4992389;28;20411;-60